createdAt,value
2022-11-25T00:01:12.251Z,61.51
2022-11-25T00:03:40.281Z,61.43
2022-11-25T00:06:23.632Z,61.48
2022-11-25T00:09:02.688Z,61.42
2022-11-25T00:11:29.944Z,61.48
2022-11-25T00:13:57.316Z,61.50
2022-11-25T00:16:26.044Z,61.44
2022-11-25T00:18:54.840Z,61.53
2022-11-25T00:21:24.657Z,61.46
2022-11-25T00:23:56.555Z,61.45
2022-11-25T00:26:24.888Z,61.41
2022-11-25T00:28:52.389Z,61.47
2022-11-25T00:31:24.034Z,61.58
2022-11-25T00:33:51.605Z,61.54
2022-11-25T00:36:44.528Z,61.61
2022-11-25T00:39:16.119Z,61.73
2022-11-25T00:42:03.051Z,63.79
2022-11-25T00:44:41.026Z,63.71
2022-11-25T00:47:11.935Z,63.34
2022-11-25T00:49:41.490Z,61.86
2022-11-25T00:52:09.947Z,59.10
2022-11-25T00:54:37.176Z,56.62
2022-11-25T00:57:04.380Z,56.68
2022-11-25T00:59:31.234Z,57.34
2022-11-25T01:01:59.478Z,58.17
2022-11-25T01:04:26.600Z,59.36
2022-11-25T01:06:56.166Z,60.38
2022-11-25T01:09:23.751Z,62.92
2022-11-25T01:11:51.207Z,64.66
2022-11-25T01:14:19.806Z,64.77
2022-11-25T01:16:47.604Z,64.62
2022-11-25T01:19:15.573Z,64.38
2022-11-25T01:21:42.803Z,64.92
2022-11-25T01:24:13.942Z,65.08
2022-11-25T01:26:42.164Z,64.10
2022-11-25T01:29:17.740Z,62.57
2022-11-25T01:31:45.548Z,59.62
2022-11-25T01:34:18.703Z,56.89
2022-11-25T01:36:45.981Z,56.86
2022-11-25T01:39:16.781Z,57.56
2022-11-25T01:41:44.559Z,58.50
2022-11-25T01:44:25.074Z,59.38
2022-11-25T01:47:18.414Z,60.04
2022-11-25T01:49:59.564Z,63.26
2022-11-25T01:52:38.704Z,66.87
2022-11-25T01:55:26.064Z,65.82
2022-11-25T01:58:02.368Z,64.26
2022-11-25T02:00:29.313Z,62.49
2022-11-25T02:02:57.599Z,61.07
2022-11-25T02:05:48.816Z,60.51
2022-11-25T02:08:16.415Z,60.27
2022-11-25T02:10:44.163Z,60.36
2022-11-25T02:13:11.363Z,59.93
2022-11-25T02:15:38.486Z,59.68
2022-11-25T02:18:06.385Z,59.70
2022-11-25T02:20:33.411Z,61.39
2022-11-25T02:23:25.018Z,61.26
2022-11-25T02:25:53.260Z,60.75
2022-11-25T02:28:26.980Z,58.62
2022-11-25T02:30:54.149Z,56.79
2022-11-25T02:33:23.840Z,57.16
2022-11-25T02:36:00.007Z,57.84
2022-11-25T02:38:45.871Z,58.68
2022-11-25T02:41:36.097Z,59.46
2022-11-25T02:44:04.770Z,62.47
2022-11-25T02:46:32.812Z,64.54
2022-11-25T02:49:10.536Z,64.40
2022-11-25T02:51:39.564Z,64.13
2022-11-25T02:54:08.902Z,64.15
2022-11-25T02:56:36.647Z,63.58
2022-11-25T02:59:04.055Z,63.47
2022-11-25T03:01:32.054Z,63.30
2022-11-25T03:03:59.515Z,63.67
2022-11-25T03:06:29.122Z,63.76
2022-11-25T03:08:56.712Z,63.27
2022-11-25T03:11:44.058Z,63.35
2022-11-25T03:14:11.135Z,63.25
2022-11-25T03:16:37.949Z,63.45
2022-11-25T03:19:05.024Z,63.62
2022-11-25T03:21:31.976Z,63.47
2022-11-25T03:23:58.962Z,63.07
2022-11-25T03:26:26.085Z,63.31
2022-11-25T03:28:53.465Z,64.74
2022-11-25T03:31:20.694Z,63.83
2022-11-25T03:33:47.656Z,63.64
2022-11-25T03:36:15.119Z,63.53
2022-11-25T03:38:42.013Z,62.98
2022-11-25T03:41:08.927Z,63.00
2022-11-25T03:43:36.711Z,63.21
2022-11-25T03:46:03.636Z,62.54
2022-11-25T03:48:30.858Z,61.53
2022-11-25T03:50:58.136Z,61.56
2022-11-25T03:53:25.429Z,61.47
2022-11-25T03:55:52.657Z,61.36
2022-11-25T03:58:21.363Z,61.45
2022-11-25T04:00:49.415Z,61.62
2022-11-25T04:03:17.318Z,62.03
2022-11-25T04:05:44.605Z,62.21
2022-11-25T04:08:12.918Z,62.36
2022-11-25T04:10:40.078Z,62.38
2022-11-25T04:13:07.202Z,62.36
2022-11-25T04:15:37.128Z,62.45
2022-11-25T04:18:05.133Z,62.24
2022-11-25T04:20:32.486Z,62.07
2022-11-25T04:23:03.092Z,62.23
2022-11-25T04:25:29.961Z,62.73
2022-11-25T04:27:57.956Z,62.23
2022-11-25T04:30:28.650Z,62.34
2022-11-25T04:32:55.648Z,62.48
2022-11-25T04:35:23.193Z,62.62
2022-11-25T04:37:52.620Z,62.65
2022-11-25T04:40:19.499Z,62.60
2022-11-25T04:42:50.252Z,62.68
2022-11-25T04:45:23.620Z,62.76
2022-11-25T04:47:51.832Z,62.88
2022-11-25T04:50:22.198Z,63.00
2022-11-25T04:52:54.806Z,63.14
2022-11-25T04:55:21.677Z,63.14
2022-11-25T04:57:48.754Z,63.10
2022-11-25T05:00:16.959Z,63.18
2022-11-25T05:02:43.900Z,63.30
2022-11-25T05:05:18.632Z,63.12
2022-11-25T05:07:45.797Z,63.12
2022-11-25T05:10:14.147Z,63.27
2022-11-25T05:12:44.436Z,63.29
2022-11-25T05:15:15.543Z,63.41
2022-11-25T05:17:44.859Z,64.06
2022-11-25T05:20:12.867Z,63.57
2022-11-25T05:22:40.200Z,62.81
2022-11-25T05:25:10.129Z,62.88
2022-11-25T05:27:41.052Z,62.84
2022-11-25T05:30:09.574Z,63.10
2022-11-25T05:32:37.440Z,63.16
2022-11-25T05:35:07.964Z,63.14
2022-11-25T05:37:35.013Z,63.04
2022-11-25T05:40:05.174Z,63.14
2022-11-25T05:43:01.457Z,63.22
2022-11-25T05:45:32.126Z,63.44
2022-11-25T05:47:58.947Z,63.48
2022-11-25T05:50:26.988Z,63.39
2022-11-25T05:53:03.453Z,63.57
2022-11-25T05:55:30.617Z,63.62
2022-11-25T05:57:59.162Z,63.58
2022-11-25T06:00:27.015Z,63.77
2022-11-25T06:02:55.045Z,63.84
2022-11-25T06:05:22.187Z,63.85
2022-11-25T06:07:50.383Z,63.77
2022-11-25T06:10:18.978Z,64.02
2022-11-25T06:12:46.270Z,64.27
2022-11-25T06:15:14.333Z,63.81
2022-11-25T06:17:41.782Z,63.61
2022-11-25T06:20:15.730Z,63.66
2022-11-25T06:22:42.745Z,63.62
2022-11-25T06:25:09.734Z,63.45
2022-11-25T06:28:04.483Z,63.56
2022-11-25T06:30:25.484Z,63.79
2022-11-25T06:33:12.076Z,63.81
2022-11-25T06:35:39.719Z,63.70
2022-11-25T06:38:07.317Z,63.71
2022-11-25T06:40:34.118Z,63.68
2022-11-25T06:43:01.030Z,63.37
2022-11-25T06:45:27.958Z,63.53
2022-11-25T06:47:54.817Z,63.59
2022-11-25T06:50:21.853Z,63.81
2022-11-25T06:52:48.708Z,63.68
2022-11-25T06:55:16.770Z,63.81
2022-11-25T06:57:43.763Z,64.01
2022-11-25T07:00:11.025Z,63.96
2022-11-25T07:02:42.900Z,63.83
2022-11-25T07:05:12.556Z,63.88
2022-11-25T07:07:39.476Z,64.01
2022-11-25T07:10:07.241Z,64.04
2022-11-25T07:12:34.155Z,63.90
2022-11-25T07:15:01.167Z,63.83
2022-11-25T07:17:28.070Z,63.84
2022-11-25T07:19:54.958Z,63.87
2022-11-25T07:22:22.353Z,63.79
2022-11-25T07:24:49.144Z,63.62
2022-11-25T07:27:16.100Z,63.43
2022-11-25T07:30:29.610Z,63.56
2022-11-25T07:32:33.217Z,63.48
2022-11-25T07:35:00.043Z,63.38
2022-11-25T07:37:27.121Z,63.18
2022-11-25T07:39:53.990Z,62.96
2022-11-25T07:42:20.874Z,62.74
2022-11-25T07:44:48.691Z,62.54
2022-11-25T07:47:34.898Z,62.54
2022-11-25T07:50:01.684Z,62.61
2022-11-25T07:52:28.728Z,62.43
2022-11-25T07:54:55.683Z,62.51
2022-11-25T07:57:22.677Z,62.59
2022-11-25T07:59:49.519Z,62.47
2022-11-25T08:02:16.403Z,62.51
2022-11-25T08:04:43.257Z,62.66
2022-11-25T08:07:11.005Z,62.81
2022-11-25T08:09:38.391Z,62.68
2022-11-25T08:12:05.483Z,62.75
2022-11-25T08:14:32.286Z,62.84
2022-11-25T08:16:59.228Z,62.93
2022-11-25T08:19:31.253Z,62.94
2022-11-25T08:21:58.559Z,62.95
2022-11-25T08:24:25.696Z,63.17
2022-11-25T08:26:54.273Z,62.88
2022-11-25T08:29:21.343Z,63.02
2022-11-25T08:31:48.330Z,62.75
2022-11-25T08:34:21.529Z,62.70
2022-11-25T08:36:49.298Z,62.57
2022-11-25T08:42:06.886Z,62.65
2022-11-25T08:44:34.553Z,62.90
2022-11-25T08:47:01.463Z,62.77
2022-11-25T08:49:29.957Z,62.96
2022-11-25T08:51:57.449Z,62.89
2022-11-25T08:54:24.277Z,62.67
2022-11-25T08:56:51.479Z,62.57
2022-11-25T08:59:18.412Z,63.08
2022-11-25T09:01:45.326Z,62.77
2022-11-25T09:04:12.466Z,62.39
2022-11-25T09:06:39.288Z,62.45
2022-11-25T09:09:06.193Z,62.40
2022-11-25T09:11:33.287Z,62.31
2022-11-25T09:14:00.255Z,62.30
2022-11-25T09:16:27.431Z,62.38
2022-11-25T09:18:56.317Z,62.37
2022-11-25T16:17:37.698Z,65.80
2022-11-25T16:20:16.689Z,66.19
2022-11-25T16:22:45.531Z,66.24
2022-11-25T16:25:16.345Z,66.17
2022-11-25T16:27:45.604Z,66.64
2022-11-25T16:30:19.475Z,66.30
2022-11-25T16:32:47.670Z,65.72
2022-11-25T16:35:20.805Z,65.46
2022-11-25T16:37:49.768Z,65.27
2022-11-25T16:40:19.484Z,65.11
2022-11-25T16:42:50.320Z,65.10
2022-11-25T16:45:25.434Z,65.08
2022-11-25T16:47:54.258Z,64.90
2022-11-25T16:50:23.775Z,64.76
2022-11-25T16:52:52.091Z,64.80
2022-11-25T16:55:27.568Z,64.65
2022-11-25T16:57:55.923Z,64.61
2022-11-25T17:00:24.188Z,64.64
2022-11-25T17:02:52.497Z,64.49
2022-11-25T17:05:23.989Z,64.47
2022-11-25T17:07:52.705Z,64.35
2022-11-25T17:10:21.807Z,64.29
2022-11-25T17:12:50.631Z,64.30
2022-11-25T17:15:25.060Z,64.25
2022-11-25T17:17:53.429Z,64.45
2022-11-25T17:20:24.955Z,64.44
2022-11-25T17:22:54.489Z,64.27
2022-11-25T17:25:25.721Z,64.25
2022-11-25T17:27:55.654Z,64.27
2022-11-25T17:30:27.598Z,64.32
2022-11-25T17:33:03.713Z,64.41
2022-11-25T17:35:31.905Z,64.31
2022-11-25T17:38:01.182Z,64.23
2022-11-25T17:40:29.571Z,64.19
2022-11-25T17:42:57.810Z,64.09
2022-11-25T17:45:26.046Z,63.97
2022-11-25T17:47:54.291Z,63.90
2022-11-25T17:50:25.765Z,63.88
2022-11-25T17:52:54.016Z,63.76
2022-11-25T17:55:23.069Z,63.62
2022-11-25T17:57:51.967Z,63.57
2022-11-25T18:00:22.252Z,63.52
2022-11-25T18:02:51.151Z,63.68
2022-11-25T18:05:25.360Z,63.75
2022-11-25T18:07:54.442Z,63.89
2022-11-25T18:10:26.685Z,63.82
2022-11-25T18:12:57.351Z,64.06
2022-11-25T18:15:29.648Z,64.10
2022-11-25T18:18:01.818Z,64.11
2022-11-25T18:20:32.838Z,64.56
2022-11-25T18:23:01.207Z,64.24
2022-11-25T18:25:34.101Z,64.05
2022-11-25T18:28:04.578Z,63.98
2022-11-25T18:30:35.800Z,63.86
2022-11-25T18:33:06.424Z,63.69
2022-11-25T18:35:36.748Z,63.74
2022-11-25T18:38:06.609Z,63.65
2022-11-25T18:40:39.761Z,63.52
2022-11-25T18:43:14.989Z,63.68
2022-11-25T18:45:43.853Z,63.81
2022-11-25T18:48:18.401Z,63.71
2022-11-25T18:50:47.825Z,63.74
2022-11-25T18:53:16.673Z,63.68
2022-11-25T18:55:46.089Z,63.68
2022-11-25T18:58:18.614Z,64.12
2022-11-25T19:00:48.789Z,64.36
2022-11-25T19:03:20.150Z,64.46
2022-11-25T19:05:49.094Z,64.19
2022-11-25T19:08:18.872Z,63.87
2022-11-25T19:10:48.499Z,63.38
2022-11-25T19:13:36.708Z,63.02
2022-11-25T19:16:13.765Z,63.03
2022-11-25T19:18:45.379Z,63.19
2022-11-25T19:21:19.222Z,63.16
2022-11-25T19:23:48.000Z,63.33
2022-11-25T19:26:33.729Z,63.40
2022-11-25T19:29:08.047Z,63.67
2022-11-25T19:31:36.416Z,63.81
2022-11-25T19:34:05.025Z,64.40
2022-11-25T19:36:35.307Z,64.11
2022-11-25T19:39:03.652Z,64.15
2022-11-25T19:41:31.856Z,63.64
2022-11-25T19:44:00.093Z,63.80
2022-11-25T19:46:46.388Z,63.78
2022-11-25T19:49:19.999Z,64.66
2022-11-25T19:51:48.988Z,64.08
2022-11-25T19:54:19.082Z,63.98
2022-11-25T19:56:47.939Z,63.99
2022-11-25T19:59:16.144Z,64.18
2022-11-25T20:01:46.345Z,64.21
2022-11-25T20:04:20.922Z,64.39
2022-11-25T20:06:49.932Z,64.57
2022-11-25T20:09:18.110Z,64.71
2022-11-25T20:11:47.644Z,64.79
2022-11-25T20:14:15.787Z,65.64
2022-11-25T20:16:44.056Z,65.14
2022-11-25T20:19:17.825Z,65.05
2022-11-25T20:21:46.661Z,65.09
2022-11-25T20:24:18.748Z,65.15
2022-11-25T20:26:48.903Z,65.29
2022-11-25T20:29:24.690Z,65.26
2022-11-25T20:31:56.174Z,65.21
2022-11-25T20:34:24.978Z,65.21
2022-11-25T20:36:53.289Z,65.44
2022-11-25T20:39:21.645Z,65.62
2022-11-25T20:41:52.690Z,65.59
2022-11-25T20:44:21.437Z,65.44
2022-11-25T20:46:50.006Z,65.61
2022-11-25T20:49:29.604Z,65.51
2022-11-25T20:51:57.964Z,65.53
2022-11-25T21:07:13.323Z,66.51
2022-11-25T21:09:51.616Z,66.52
2022-11-25T21:12:19.895Z,66.43
2022-11-25T21:14:48.164Z,66.43
2022-11-25T21:17:16.494Z,66.28
2022-11-25T21:19:45.132Z,66.17
2022-11-25T21:22:15.030Z,66.22
2022-11-25T21:24:44.722Z,66.08
2022-11-25T21:27:17.459Z,65.99
2022-11-25T21:29:46.298Z,65.87
2022-11-25T21:32:23.247Z,65.77
2022-11-25T21:34:51.788Z,65.75
2022-11-25T21:37:29.797Z,65.70
2022-11-25T21:39:59.274Z,65.72
2022-11-25T21:42:29.909Z,65.63
2022-11-25T21:44:58.283Z,65.59
2022-11-25T21:47:29.578Z,65.62
2022-11-25T21:49:58.237Z,65.59
2022-11-25T21:52:26.448Z,65.33
2022-11-25T21:54:54.684Z,65.45
2022-11-25T21:57:28.501Z,65.49
2022-11-25T21:59:56.698Z,65.52
2022-11-25T22:02:25.324Z,65.59
2022-11-25T22:04:59.157Z,65.65
2022-11-25T22:07:30.730Z,65.45
2022-11-25T22:09:59.653Z,65.42
2022-11-25T22:12:30.645Z,65.26
2022-11-25T22:14:59.913Z,65.21
2022-11-25T22:17:30.134Z,65.17
2022-11-25T22:19:58.808Z,65.16
2022-11-25T22:22:27.563Z,65.03
2022-11-25T22:24:55.794Z,65.09
2022-11-25T22:27:36.364Z,65.03
2022-11-25T22:30:05.905Z,64.91
2022-11-25T22:32:34.133Z,65.01
2022-11-25T22:35:02.298Z,64.99
2022-11-25T22:37:31.328Z,64.99
2022-11-25T22:39:59.542Z,64.94
2022-11-25T22:42:31.231Z,64.86
2022-11-25T22:45:02.309Z,64.96
2022-11-25T22:47:49.408Z,65.03
2022-11-25T22:50:33.317Z,65.11
2022-11-25T22:53:02.009Z,64.87
2022-11-25T22:55:32.392Z,64.79
2022-11-25T22:58:01.937Z,64.68
2022-11-25T23:00:36.373Z,64.63
2022-11-25T23:03:07.053Z,64.59
2022-11-25T23:05:37.223Z,64.61
2022-11-25T23:08:16.833Z,64.54
2022-11-25T23:10:45.956Z,64.38
2022-11-25T23:13:17.120Z,64.37
2022-11-25T23:15:49.039Z,64.30
2022-11-25T23:18:26.316Z,64.12
2022-11-25T23:20:55.499Z,64.16
2022-11-25T23:23:29.357Z,64.20
2022-11-25T23:25:58.204Z,64.24
2022-11-25T23:28:26.682Z,64.26
2022-11-25T23:30:57.139Z,64.31
2022-11-25T23:33:31.617Z,64.10
2022-11-25T23:36:04.768Z,64.22
2022-11-25T23:38:42.323Z,64.18
2022-11-25T23:41:18.983Z,64.57
2022-11-25T23:43:47.434Z,64.32
2022-11-25T23:46:18.593Z,64.17
2022-11-25T23:48:54.924Z,64.19
2022-11-25T23:51:24.648Z,64.20
2022-11-25T23:53:53.573Z,64.28
2022-11-25T23:56:23.076Z,64.30
2022-11-25T23:58:51.339Z,64.56
